createdAt,value
2019-04-01T00:02:24.388Z,0.95
2019-04-01T00:04:58.105Z,0.94
2019-04-01T00:07:31.842Z,0.92
2019-04-01T00:10:06.652Z,0.90
2019-04-01T00:12:40.401Z,0.88
2019-04-01T00:15:14.270Z,0.85
2019-04-01T00:17:48.253Z,0.86
2019-04-01T00:20:21.965Z,0.86
2019-04-01T00:22:56.082Z,0.87
2019-04-01T00:25:30.192Z,0.86
2019-04-01T00:28:03.934Z,0.88
2019-04-01T00:30:37.651Z,0.84
2019-04-01T00:33:11.410Z,0.84
2019-04-01T00:35:45.141Z,0.84
2019-04-01T00:38:19.145Z,0.82
2019-04-01T00:40:53.286Z,0.80
2019-04-01T00:43:57.960Z,0.80
2019-04-01T00:46:32.918Z,0.76
2019-04-01T00:49:06.759Z,0.75
2019-04-01T00:51:40.856Z,0.69
2019-04-01T00:54:14.606Z,0.67
2019-04-01T00:56:48.325Z,0.66
2019-04-01T00:59:22.318Z,0.64
2019-04-01T01:01:56.030Z,0.60
2019-04-01T01:04:29.766Z,0.65
2019-04-01T01:07:03.569Z,0.64
2019-04-01T01:09:37.637Z,0.61
2019-04-01T01:12:11.357Z,0.59
2019-04-01T01:14:45.090Z,0.55
2019-04-01T01:17:18.818Z,0.59
2019-04-01T01:19:52.644Z,0.58
2019-04-01T01:22:26.367Z,0.54
2019-04-01T01:25:00.345Z,0.55
2019-04-01T01:27:34.198Z,0.53
2019-04-01T01:30:08.483Z,0.52
2019-04-01T01:32:42.209Z,0.52
2019-04-01T01:35:15.950Z,0.48
2019-04-01T01:37:49.720Z,0.46
2019-04-01T01:40:23.448Z,0.46
2019-04-01T01:42:57.169Z,0.46
2019-04-01T01:45:30.921Z,0.45
2019-04-01T01:48:04.650Z,0.46
2019-04-01T01:50:38.421Z,0.46
2019-04-01T01:53:12.149Z,0.45
2019-04-01T01:55:46.181Z,0.45
2019-04-01T01:58:19.904Z,0.41
2019-04-01T02:00:55.668Z,0.40
2019-04-01T02:03:29.390Z,0.40
2019-04-01T02:06:03.203Z,0.38
2019-04-01T02:08:36.994Z,0.34
2019-04-01T02:11:10.733Z,0.34
2019-04-01T02:13:44.449Z,0.30
2019-04-01T02:16:18.376Z,0.33
2019-04-01T02:18:52.099Z,0.34
2019-04-01T02:21:25.841Z,0.35
2019-04-01T02:23:59.563Z,0.37
2019-04-01T02:26:33.340Z,0.37
2019-04-01T02:29:07.357Z,0.34
2019-04-01T02:31:41.504Z,0.33
2019-04-01T02:34:15.228Z,0.31
2019-04-01T02:36:48.959Z,0.30
2019-04-01T02:39:23.000Z,0.31
2019-04-01T02:41:56.747Z,0.30
2019-04-01T02:44:30.462Z,0.24
2019-04-01T02:47:04.370Z,0.18
2019-04-01T02:49:38.446Z,0.17
2019-04-01T02:52:12.854Z,0.12
2019-04-01T02:54:46.553Z,0.13
2019-04-01T02:57:20.574Z,0.13
2019-04-01T02:59:54.267Z,0.11
2019-04-01T03:02:28.259Z,0.12
2019-04-01T03:05:01.968Z,0.09
2019-04-01T03:07:35.669Z,0.06
2019-04-01T03:10:09.521Z,0.04
2019-04-01T03:12:43.471Z,-0.01
2019-04-01T03:15:17.255Z,-0.02
2019-04-01T03:17:51.178Z,-0.07
2019-04-01T03:20:25.208Z,-0.06
2019-04-01T03:22:59.001Z,-0.09
2019-04-01T03:25:32.816Z,-0.14
2019-04-01T03:28:06.532Z,-0.14
2019-04-01T03:30:40.242Z,-0.18
2019-04-01T03:33:14.093Z,-0.19
2019-04-01T03:35:47.843Z,-0.22
2019-04-01T03:38:21.561Z,-0.24
2019-04-01T03:40:55.287Z,-0.28
2019-04-01T03:43:29.003Z,-0.29
2019-04-01T03:46:02.711Z,-0.29
2019-04-01T03:48:36.434Z,-0.33
2019-04-01T03:51:10.138Z,-0.36
2019-04-01T03:53:43.880Z,-0.39
2019-04-01T03:56:17.611Z,-0.41
2019-04-01T03:58:51.334Z,-0.43
2019-04-01T04:01:29.986Z,-0.45
2019-04-01T04:04:01.177Z,-0.51
2019-04-01T04:06:36.630Z,-0.53
2019-04-01T04:09:10.542Z,-0.56
2019-04-01T04:11:44.360Z,-0.56
2019-04-01T04:14:18.329Z,-0.57
2019-04-01T04:16:52.036Z,-0.57
2019-04-01T04:19:26.340Z,-0.60
2019-04-01T04:22:00.061Z,-0.61
2019-04-01T04:24:33.771Z,-0.60
2019-04-01T04:27:11.159Z,-0.58
2019-04-01T04:29:42.923Z,-0.63
2019-04-01T04:32:16.625Z,-0.63
2019-04-01T04:34:50.349Z,-0.63
2019-04-01T04:37:24.393Z,-0.64
2019-04-01T04:39:58.122Z,-0.64
2019-04-01T04:42:31.896Z,-0.66
2019-04-01T04:45:06.057Z,-0.68
2019-04-01T04:47:39.801Z,-0.60
2019-04-01T04:50:13.648Z,-0.58
2019-04-01T04:52:47.677Z,-0.63
2019-04-01T04:55:21.401Z,-0.66
2019-04-01T04:57:55.191Z,-0.68
2019-04-01T05:00:29.164Z,-0.67
2019-04-01T05:03:02.901Z,-0.66
2019-04-01T05:05:36.908Z,-0.64
2019-04-01T05:08:10.909Z,-0.67
2019-04-01T05:10:44.901Z,-0.67
2019-04-01T05:13:18.624Z,-0.68
2019-04-01T05:15:52.320Z,-0.66
2019-04-01T05:18:26.034Z,-0.65
2019-04-01T05:21:01.045Z,-0.65
2019-04-01T05:23:35.017Z,-0.63
2019-04-01T05:26:09.705Z,-0.62
2019-04-01T05:28:45.499Z,-0.61
2019-04-01T05:31:21.806Z,-0.58
2019-04-01T05:33:58.412Z,-0.57
2019-04-01T05:36:32.759Z,-0.55
2019-04-01T05:39:07.399Z,-0.52
2019-04-01T05:41:41.455Z,-0.51
2019-04-01T05:44:15.251Z,-0.53
2019-04-01T05:46:49.356Z,-0.48
2019-04-01T05:49:23.151Z,-0.44
2019-04-01T05:51:56.996Z,-0.41
2019-04-01T05:54:30.718Z,-0.36
2019-04-01T05:57:05.384Z,-0.31
2019-04-01T05:59:39.237Z,-0.21
2019-04-01T06:02:13.007Z,-0.16
2019-04-01T06:04:47.100Z,-0.07
2019-04-01T06:07:20.880Z,0.03
2019-04-01T06:09:54.742Z,0.09
2019-04-01T06:12:29.276Z,0.17
2019-04-01T06:15:03.675Z,0.24
2019-04-01T06:17:37.696Z,0.34
2019-04-01T06:20:11.593Z,0.43
2019-04-01T06:22:45.650Z,0.51
2019-04-01T06:25:19.372Z,0.59
2019-04-01T06:27:53.145Z,0.65
2019-04-01T06:30:26.888Z,0.75
2019-04-01T06:33:00.839Z,0.81
2019-04-01T06:35:34.730Z,0.95
2019-04-01T06:38:08.533Z,1.03
2019-04-01T06:40:42.328Z,1.13
2019-04-01T06:43:16.276Z,1.24
2019-04-01T06:45:50.315Z,1.30
2019-04-01T06:48:24.086Z,1.42
2019-04-01T06:50:57.805Z,1.47
2019-04-01T06:53:32.105Z,1.58
2019-04-01T06:56:05.959Z,1.69
2019-04-01T06:58:40.080Z,1.83
2019-04-01T07:01:13.860Z,1.93
2019-04-01T07:03:48.461Z,2.11
2019-04-01T07:06:22.163Z,2.21
2019-04-01T07:08:55.858Z,2.33
2019-04-01T07:11:29.889Z,2.46
2019-04-01T07:14:05.049Z,2.61
2019-04-01T07:16:40.152Z,2.77
2019-04-01T07:19:14.363Z,2.89
2019-04-01T07:21:48.080Z,3.00
2019-04-01T07:24:21.921Z,3.04
2019-04-01T07:26:55.776Z,3.07
2019-04-01T07:29:29.467Z,3.23
2019-04-01T07:32:03.436Z,3.40
2019-04-01T07:34:37.194Z,3.54
2019-04-01T07:37:11.044Z,3.65
2019-04-01T07:39:44.811Z,3.81
2019-04-01T07:42:18.523Z,3.90
2019-04-01T07:44:52.617Z,4.09
2019-04-01T07:47:26.796Z,4.26
2019-04-01T07:50:00.488Z,4.39
2019-04-01T07:52:34.377Z,4.61
2019-04-01T07:55:08.428Z,4.79
2019-04-01T07:57:42.219Z,4.97
2019-04-01T08:00:16.467Z,5.10
2019-04-01T08:02:50.420Z,5.23
2019-04-01T08:05:26.036Z,5.42
2019-04-01T08:07:59.688Z,5.51
2019-04-01T08:10:33.546Z,5.69
2019-04-01T08:13:07.759Z,5.88
2019-04-01T08:15:41.537Z,6.02
2019-04-01T08:18:15.584Z,6.35
2019-04-01T08:20:49.275Z,6.66
2019-04-01T08:23:23.128Z,7.20
2019-04-01T08:25:56.903Z,7.20
2019-04-01T08:28:30.631Z,8.07
2019-04-01T08:31:04.718Z,8.07
2019-04-01T08:33:38.772Z,8.61
2019-04-01T08:36:12.540Z,9.70
2019-04-01T08:38:46.261Z,10.59
2019-04-01T08:41:20.426Z,12.30
2019-04-01T08:43:54.390Z,13.52
2019-04-01T08:46:28.467Z,13.60
2019-04-01T08:49:02.468Z,13.79
2019-04-01T08:51:36.632Z,14.20
2019-04-01T08:54:10.433Z,14.63
2019-04-01T08:56:44.209Z,14.16
2019-04-01T08:59:18.003Z,14.18
2019-04-01T09:01:52.275Z,14.67
2019-04-01T09:04:26.334Z,14.98
2019-04-01T09:07:00.036Z,15.21
2019-04-01T09:09:34.508Z,15.75
2019-04-01T09:12:08.657Z,16.42
2019-04-01T09:14:43.224Z,16.09
2019-04-01T09:17:17.378Z,16.64
2019-04-01T09:19:51.199Z,17.55
2019-04-01T09:22:24.910Z,17.46
2019-04-01T09:24:58.627Z,17.99
2019-04-01T09:27:32.324Z,18.15
2019-04-01T09:30:07.156Z,17.35
2019-04-01T09:32:41.094Z,17.81
2019-04-01T09:35:14.872Z,17.51
2019-04-01T09:37:48.582Z,18.32
2019-04-01T09:40:22.375Z,17.91
2019-04-01T09:42:56.084Z,18.44
2019-04-01T09:45:29.887Z,18.97
2019-04-01T09:48:03.673Z,18.63
2019-04-01T09:50:37.400Z,18.46
2019-04-01T09:53:11.175Z,18.58
2019-04-01T09:55:45.264Z,18.07
2019-04-01T09:58:18.973Z,17.62
2019-04-01T10:00:53.404Z,19.09
2019-04-01T10:03:27.623Z,18.74
2019-04-01T10:06:01.333Z,19.36
2019-04-01T10:08:42.117Z,18.80
2019-04-01T10:11:12.630Z,19.28
2019-04-01T10:13:45.917Z,20.25
2019-04-01T10:16:19.649Z,21.30
2019-04-01T10:18:53.353Z,21.33
2019-04-01T10:21:27.372Z,21.26
2019-04-01T10:24:01.091Z,21.00
2019-04-01T10:26:34.981Z,21.51
2019-04-01T10:29:08.684Z,20.47
2019-04-01T10:31:42.481Z,19.68
2019-04-01T10:34:16.187Z,19.64
2019-04-01T10:36:50.058Z,20.84
2019-04-01T10:39:23.772Z,21.15
2019-04-01T10:41:57.821Z,21.74
2019-04-01T10:44:31.523Z,21.94
2019-04-01T10:47:05.765Z,22.38
2019-04-01T10:49:39.480Z,20.85
2019-04-01T10:52:13.294Z,20.69
2019-04-01T10:54:47.177Z,21.86
2019-04-01T10:57:20.904Z,20.82
2019-04-01T10:59:54.865Z,20.39
2019-04-01T11:02:28.755Z,20.57
2019-04-01T11:07:35.539Z,22.08
2019-04-01T11:10:11.790Z,22.49
2019-04-01T11:12:45.149Z,22.09
2019-04-01T11:15:20.385Z,22.37
2019-04-01T11:17:54.552Z,22.69
2019-04-01T11:20:28.257Z,22.56
2019-04-01T11:23:02.798Z,22.87
2019-04-01T11:25:37.123Z,22.66
2019-04-01T11:28:10.849Z,21.78
2019-04-01T11:30:44.829Z,21.49
2019-04-01T11:33:18.903Z,21.27
2019-04-01T11:35:52.593Z,20.61
2019-04-01T11:38:26.281Z,20.19
2019-04-01T11:41:00.045Z,20.46
2019-04-01T11:43:35.668Z,21.86
2019-04-01T11:46:12.580Z,21.15
2019-04-01T11:48:45.684Z,22.73
2019-04-01T11:51:31.992Z,23.19
2019-04-01T11:53:55.232Z,21.99
2019-04-01T11:56:29.006Z,21.08
2019-04-01T11:59:02.802Z,20.92
2019-04-01T12:01:36.932Z,21.89
2019-04-01T12:04:10.970Z,21.95
2019-04-01T12:06:44.693Z,22.16
2019-04-01T12:09:18.405Z,22.14
2019-04-01T12:11:52.119Z,22.23
2019-04-01T12:14:25.891Z,22.14
2019-04-01T12:16:59.608Z,21.51
2019-04-01T12:19:33.396Z,21.54
2019-04-01T12:22:07.178Z,21.92
2019-04-01T12:24:41.290Z,22.55
2019-04-01T12:27:15.536Z,22.29
2019-04-01T12:29:51.395Z,21.50
2019-04-01T12:32:25.182Z,20.92
2019-04-01T12:34:58.917Z,22.29
2019-04-01T12:37:32.620Z,23.27
2019-04-01T12:40:06.922Z,23.46
2019-04-01T12:42:40.914Z,23.84
2019-04-01T12:45:14.780Z,23.98
2019-04-01T12:47:48.552Z,24.10
2019-04-01T12:50:22.476Z,24.05
2019-04-01T12:52:56.248Z,23.52
2019-04-01T12:55:30.096Z,22.67
2019-04-01T12:58:03.888Z,21.42
2019-04-01T13:00:37.712Z,21.90
2019-04-01T13:03:11.946Z,22.70
2019-04-01T13:05:45.795Z,22.56
2019-04-01T13:08:19.873Z,21.53
2019-04-01T13:10:56.483Z,22.11
2019-04-01T13:13:29.309Z,23.46
2019-04-01T13:16:03.539Z,23.29
2019-04-01T13:18:38.305Z,23.50
2019-04-01T13:21:12.243Z,23.12
2019-04-01T13:23:46.008Z,22.79
2019-04-01T13:26:19.981Z,22.69
2019-04-01T13:28:55.016Z,22.10
2019-04-01T13:31:29.015Z,22.11
2019-04-01T13:34:02.778Z,22.53
2019-04-01T13:36:36.856Z,22.68
2019-04-01T13:39:10.805Z,23.63
2019-04-01T13:41:45.500Z,23.63
2019-04-01T13:44:19.544Z,24.31
2019-04-01T13:46:55.949Z,24.17
2019-04-01T13:49:29.258Z,22.97
2019-04-01T13:52:03.746Z,23.02
2019-04-01T13:54:37.695Z,21.90
2019-04-01T13:57:13.071Z,21.68
2019-04-01T13:59:49.417Z,22.77
2019-04-01T14:02:22.891Z,22.01
2019-04-01T14:04:56.990Z,20.95
2019-04-01T14:07:30.677Z,20.78
2019-04-01T14:10:05.212Z,20.80
2019-04-01T14:12:39.272Z,20.71
2019-04-01T14:15:13.318Z,19.81
2019-04-01T14:17:47.036Z,19.84
2019-04-01T14:20:20.724Z,19.25
2019-04-01T14:22:54.452Z,19.51
2019-04-01T14:25:28.148Z,20.70
2019-04-01T14:28:02.425Z,20.80
2019-04-01T14:30:36.667Z,20.69
2019-04-01T14:33:10.387Z,20.46
2019-04-01T14:35:45.303Z,20.70
2019-04-01T14:38:19.047Z,21.06
2019-04-01T14:40:52.753Z,22.15
2019-04-01T14:43:26.622Z,22.77
2019-04-01T14:46:00.626Z,22.80
2019-04-01T14:48:34.598Z,21.88
2019-04-01T14:51:08.444Z,21.60
2019-04-01T14:53:42.222Z,21.62
2019-04-01T14:56:16.030Z,22.02
2019-04-01T14:58:50.115Z,22.16
2019-04-01T15:01:23.992Z,21.28
2019-04-01T15:03:57.896Z,21.74
2019-04-01T15:06:31.773Z,22.11
2019-04-01T15:09:08.573Z,20.86
2019-04-01T15:11:42.843Z,21.42
2019-04-01T15:14:16.678Z,21.58
2019-04-01T15:16:50.456Z,20.41
2019-04-01T15:19:24.263Z,20.11
2019-04-01T15:21:58.385Z,19.19
2019-04-01T15:24:32.151Z,17.85
2019-04-01T15:27:05.988Z,16.70
2019-04-01T15:29:39.867Z,15.89
2019-04-01T15:32:13.735Z,15.43
2019-04-01T15:34:47.539Z,15.11
2019-04-01T15:37:21.307Z,14.66
2019-04-01T15:39:55.112Z,14.41
2019-04-01T15:42:28.935Z,14.34
2019-04-01T15:45:02.829Z,14.38
2019-04-01T15:47:38.299Z,14.32
2019-04-01T15:50:27.375Z,14.16
2019-04-01T15:52:47.948Z,14.09
2019-04-01T15:55:21.701Z,14.02
2019-04-01T15:57:55.503Z,14.02
2019-04-01T16:00:29.290Z,13.96
2019-04-01T16:03:03.106Z,13.86
2019-04-01T16:05:36.862Z,13.72
2019-04-01T16:08:10.763Z,13.69
2019-04-01T16:10:44.657Z,13.60
2019-04-01T16:13:18.542Z,13.52
2019-04-01T16:15:52.321Z,13.41
2019-04-01T16:18:26.058Z,13.36
2019-04-01T16:21:00.011Z,13.32
2019-04-01T16:23:33.993Z,13.23
2019-04-01T16:26:09.520Z,13.17
2019-04-01T16:28:43.457Z,13.11
2019-04-01T16:31:17.255Z,12.94
2019-04-01T16:33:51.407Z,13.00
2019-04-01T16:36:25.134Z,12.95
2019-04-01T16:38:59.420Z,12.98
2019-04-01T16:41:33.225Z,13.00
2019-04-01T16:44:07.209Z,13.00
2019-04-01T16:46:41.533Z,13.00
2019-04-01T16:49:15.740Z,12.94
2019-04-01T16:51:50.477Z,12.94
2019-04-01T16:54:24.294Z,12.92
2019-04-01T16:56:58.067Z,12.83
2019-04-01T16:59:31.906Z,12.72
2019-04-01T17:02:17.236Z,12.57
2019-04-01T17:04:41.521Z,12.63
2019-04-01T17:07:15.447Z,12.60
2019-04-01T17:09:49.443Z,12.50
2019-04-01T17:12:23.363Z,12.45
2019-04-01T17:14:57.383Z,12.36
2019-04-01T17:17:31.261Z,12.32
2019-04-01T17:20:05.493Z,12.30
2019-04-01T17:22:39.384Z,12.21
2019-04-01T17:25:13.375Z,12.13
2019-04-01T17:27:47.318Z,12.07
2019-04-01T17:30:21.571Z,11.95
2019-04-01T17:32:55.427Z,11.86
2019-04-01T17:35:29.377Z,11.80
2019-04-01T17:38:03.663Z,11.73
2019-04-01T17:40:37.410Z,11.59
2019-04-01T17:43:13.488Z,11.48
2019-04-01T17:45:46.918Z,11.38
2019-04-01T17:48:20.674Z,11.21
2019-04-01T17:50:54.453Z,11.06
2019-04-01T17:53:28.236Z,10.93
2019-04-01T17:56:02.147Z,10.81
2019-04-01T17:58:36.035Z,10.68
2019-04-01T18:01:10.537Z,10.54
2019-04-01T18:03:45.058Z,10.40
2019-04-01T18:06:18.911Z,10.26
2019-04-01T18:08:52.725Z,10.00
2019-04-01T18:11:26.461Z,9.84
2019-04-01T18:14:02.757Z,9.69
2019-04-01T18:16:35.755Z,9.52
2019-04-01T18:19:09.905Z,9.31
2019-04-01T18:21:43.677Z,9.19
2019-04-01T18:24:17.427Z,9.10
2019-04-01T18:26:51.198Z,8.92
2019-04-01T18:29:24.980Z,8.83
2019-04-01T18:31:59.106Z,8.68
2019-04-01T18:34:32.980Z,8.64
2019-04-01T18:37:06.688Z,8.48
2019-04-01T18:39:47.975Z,8.34
2019-04-01T18:42:15.790Z,8.30
2019-04-01T18:44:49.841Z,8.00
2019-04-01T18:47:23.567Z,7.93
2019-04-01T18:49:57.285Z,7.93
2019-04-01T18:52:30.991Z,7.84
2019-04-01T18:55:07.660Z,7.82
2019-04-01T18:57:40.519Z,7.73
2019-04-01T19:00:14.887Z,7.73
2019-04-01T19:02:48.775Z,7.63
2019-04-01T19:05:22.868Z,7.59
2019-04-01T19:07:56.571Z,7.47
2019-04-01T19:10:30.293Z,7.45
2019-04-01T19:13:06.602Z,7.45
2019-04-01T19:15:41.997Z,7.34
2019-04-01T19:18:15.790Z,7.27
2019-04-01T19:20:56.119Z,7.11
2019-04-01T19:23:24.972Z,7.06
2019-04-01T19:25:58.683Z,7.06
2019-04-01T19:28:32.393Z,6.96
2019-04-01T19:31:06.190Z,6.89
2019-04-01T19:33:39.962Z,6.89
2019-04-01T19:36:13.956Z,6.82
2019-04-01T19:38:47.657Z,6.72
2019-04-01T19:41:21.359Z,6.72
2019-04-01T19:43:55.061Z,6.65
2019-04-01T19:46:28.767Z,6.54
2019-04-01T19:49:05.032Z,6.54
2019-04-01T19:51:38.232Z,6.45
2019-04-01T19:54:11.923Z,6.42
2019-04-01T19:56:45.937Z,6.39
2019-04-01T19:59:19.630Z,6.31
2019-04-01T20:01:53.366Z,6.30
2019-04-01T20:04:27.385Z,6.25
2019-04-01T20:07:01.081Z,6.24
2019-04-01T20:09:34.850Z,6.22
2019-04-01T20:12:08.639Z,6.22
2019-04-01T20:14:42.337Z,6.17
2019-04-01T20:17:16.135Z,6.12
2019-04-01T20:19:50.002Z,6.12
2019-04-01T20:22:24.002Z,6.09
2019-04-01T20:24:57.697Z,6.11
2019-04-01T20:27:31.711Z,6.10
2019-04-01T20:30:09.096Z,6.06
2019-04-01T20:32:42.900Z,6.04
2019-04-01T20:35:23.373Z,5.99
2019-04-01T20:37:52.228Z,5.96
2019-04-01T20:40:25.927Z,5.92
2019-04-01T20:42:59.639Z,5.83
2019-04-01T20:45:33.412Z,5.76
2019-04-01T20:48:07.118Z,5.74
2019-04-01T20:50:40.811Z,5.68
2019-04-01T20:53:14.536Z,5.64
2019-04-01T20:55:50.452Z,5.59
2019-04-01T20:58:23.743Z,5.56
2019-04-01T21:00:57.444Z,5.49
2019-04-01T21:03:31.156Z,5.44
2019-04-01T21:06:05.187Z,5.45
2019-04-01T21:08:38.907Z,5.39
2019-04-01T21:11:12.875Z,5.40
2019-04-01T21:13:46.903Z,5.36
2019-04-01T21:16:20.609Z,5.30
2019-04-01T21:18:54.319Z,5.29
2019-04-01T21:21:28.040Z,5.29
2019-04-01T21:24:01.765Z,5.20
2019-04-01T21:26:35.532Z,5.13
2019-04-01T21:29:09.234Z,5.15
2019-04-01T21:31:43.288Z,5.16
2019-04-01T21:34:17.011Z,5.14
2019-04-01T21:36:50.722Z,5.10
2019-04-01T21:39:24.444Z,5.07
2019-04-01T21:41:58.145Z,5.04
2019-04-01T21:44:31.850Z,5.04
2019-04-01T21:47:05.689Z,5.01
2019-04-01T21:49:39.408Z,5.00
2019-04-01T21:52:13.119Z,4.93
2019-04-01T21:54:46.833Z,4.94
2019-04-01T21:57:20.712Z,4.94
2019-04-01T21:59:55.485Z,4.93
2019-04-01T22:02:35.863Z,4.93
2019-04-01T22:05:05.415Z,4.90
2019-04-01T22:07:39.125Z,4.89
2019-04-01T22:10:13.180Z,4.86
2019-04-01T22:12:46.889Z,4.83
2019-04-01T22:15:21.138Z,4.80
2019-04-01T22:17:56.875Z,4.76
2019-04-01T22:20:30.837Z,4.74
2019-04-01T22:23:05.227Z,4.71
2019-04-01T22:25:39.919Z,4.68
2019-04-01T22:28:13.613Z,4.62
2019-04-01T22:30:47.326Z,4.64
2019-04-01T22:33:21.021Z,4.62
2019-04-01T22:35:54.812Z,4.54
2019-04-01T22:38:28.497Z,4.51
2019-04-01T22:41:02.208Z,4.49
2019-04-01T22:43:35.909Z,4.49
2019-04-01T22:46:09.620Z,4.46
2019-04-01T22:48:43.606Z,4.45
2019-04-01T22:51:17.379Z,4.43
2019-04-01T22:53:51.071Z,4.43
2019-04-01T22:56:24.791Z,4.37
2019-04-01T22:58:58.488Z,4.29
2019-04-01T23:01:32.238Z,4.23
2019-04-01T23:04:05.939Z,4.19
2019-04-01T23:06:39.962Z,4.14
2019-04-01T23:09:13.659Z,4.13
2019-04-01T23:11:47.376Z,4.16
2019-04-01T23:14:21.073Z,4.12
2019-04-01T23:16:54.786Z,4.08
2019-04-01T23:19:28.506Z,4.02
2019-04-01T23:22:02.220Z,3.92
2019-04-01T23:24:36.135Z,3.88
2019-04-01T23:27:09.848Z,3.85
2019-04-01T23:29:43.529Z,3.80
2019-04-01T23:32:17.241Z,3.79
2019-04-01T23:34:51.211Z,3.79
2019-04-01T23:37:24.919Z,3.81
2019-04-01T23:39:58.688Z,3.79
2019-04-01T23:42:32.401Z,3.75
2019-04-01T23:45:07.003Z,3.73
2019-04-01T23:47:40.784Z,3.75
2019-04-01T23:50:14.552Z,3.74
2019-04-01T23:52:48.269Z,3.74
2019-04-01T23:55:22.443Z,3.71
2019-04-01T23:57:56.152Z,3.71
